Time;durP1;ratioP1;P1;durP2;ratioP2;P2;SDS_P1;SDS_P2;PMS_P1;PMS_P2;Temp;Humidity;BMP_temperature;BMP_pressure;BME280_temperature;BME280_humidity;BME280_pressure;Samples;Min_cycle;Max_cycle;Signal;HPM_P1;HPM_P2
2022/11/26 00:00:30;;;;;;;5.25;2.92;;;;;;;;;;1825268;78;21056;-70
2022/11/26 00:02:57;;;;;;;5.05;2.92;;;;;;;;;;1757443;80;21000;-70
2022/11/26 05:57:14;;;;;;;5.42;3.15;;;;;;;;;;1788989;80;28692;-63
2022/11/26 05:59:41;;;;;;;6.22;2.95;;;;;;;;;;1762762;81;21018;-63
2022/11/26 06:02:07;;;;;;;4.90;3.22;;;;;;;;;;1739440;82;21004;-63
2022/11/26 06:04:33;;;;;;;4.42;2.90;;;;;;;;;;1754204;82;21088;-64
2022/11/26 06:06:59;;;;;;;3.98;2.90;;;;;;;;;;1763475;81;21536;-65
2022/11/26 06:09:25;;;;;;;5.47;3.60;;;;;;;;;;1794569;80;21087;-64
2022/11/26 06:11:52;;;;;;;5.70;3.00;;;;;;;;;;1768731;80;21111;-65
2022/11/26 06:14:19;;;;;;;7.17;3.42;;;;;;;;;;1783617;80;21013;-65
2022/11/26 06:16:45;;;;;;;5.37;3.20;;;;;;;;;;1781767;80;21020;-64
2022/11/26 06:19:11;;;;;;;5.17;3.30;;;;;;;;;;1759510;80;22161;-65
2022/11/26 06:21:38;;;;;;;5.67;3.30;;;;;;;;;;1764627;80;21016;-65
2022/11/26 06:24:05;;;;;;;6.12;3.15;;;;;;;;;;1757740;80;20984;-65
2022/11/26 06:26:31;;;;;;;4.37;3.15;;;;;;;;;;1769455;80;21017;-65
2022/11/26 06:28:57;;;;;;;6.45;3.55;;;;;;;;;;1752866;82;21558;-65
2022/11/26 06:31:23;;;;;;;4.72;3.00;;;;;;;;;;1763525;80;21042;-64
2022/11/26 06:33:56;;;;;;;4.75;3.25;;;;;;;;;;1781913;80;21543;-65
2022/11/26 06:36:22;;;;;;;5.90;3.22;;;;;;;;;;1765910;80;21547;-65
2022/11/26 06:38:48;;;;;;;6.25;3.40;;;;;;;;;;1753500;80;21064;-64
2022/11/26 06:41:14;;;;;;;5.37;3.10;;;;;;;;;;1774012;80;21047;-65
2022/11/26 06:43:41;;;;;;;6.05;3.35;;;;;;;;;;1759081;80;21571;-64
2022/11/26 06:46:08;;;;;;;6.22;3.60;;;;;;;;;;1764602;80;21044;-64
2022/11/26 06:48:34;;;;;;;6.92;3.58;;;;;;;;;;1754227;79;21016;-66
2022/11/26 06:51:04;;;;;;;6.58;3.22;;;;;;;;;;1765857;80;21007;-65
2022/11/26 06:53:31;;;;;;;7.17;3.87;;;;;;;;;;1727974;83;21544;-65
2022/11/26 06:56:04;;;;;;;6.70;3.42;;;;;;;;;;1744440;81;21145;-64
2022/11/26 06:58:32;;;;;;;6.33;3.55;;;;;;;;;;1759775;81;21530;-64
2022/11/26 07:00:58;;;;;;;6.20;3.37;;;;;;;;;;1755203;81;21099;-64
2022/11/26 07:03:25;;;;;;;5.92;3.65;;;;;;;;;;1771295;81;21020;-64
2022/11/26 07:05:52;;;;;;;6.15;3.50;;;;;;;;;;1767026;79;20973;-64
2022/11/26 07:08:18;;;;;;;5.45;3.83;;;;;;;;;;1761097;80;21024;-65
2022/11/26 07:10:46;;;;;;;4.92;3.40;;;;;;;;;;1763304;81;21000;-65
2022/11/26 07:13:12;;;;;;;5.53;3.40;;;;;;;;;;1760788;80;21012;-65
2022/11/26 07:15:39;;;;;;;5.25;2.90;;;;;;;;;;1771112;80;21043;-65
2022/11/26 07:18:05;;;;;;;7.00;3.77;;;;;;;;;;1736704;82;21055;-66
2022/11/26 07:20:31;;;;;;;6.97;3.95;;;;;;;;;;1763341;81;21003;-67
2022/11/26 07:22:57;;;;;;;7.47;3.72;;;;;;;;;;1774335;79;21535;-66
2022/11/26 07:25:23;;;;;;;7.47;4.33;;;;;;;;;;1785167;79;21514;-65
2022/11/26 07:27:50;;;;;;;6.03;3.27;;;;;;;;;;1774869;79;21558;-66
2022/11/26 07:30:16;;;;;;;5.87;3.67;;;;;;;;;;1739999;81;21063;-66
2022/11/26 07:32:42;;;;;;;7.37;3.87;;;;;;;;;;1772741;80;21495;-66
2022/11/26 07:35:11;;;;;;;7.17;4.15;;;;;;;;;;1732793;81;21071;-67
2022/11/26 07:37:37;;;;;;;7.47;3.98;;;;;;;;;;1763222;81;21115;-65
2022/11/26 07:40:04;;;;;;;6.47;4.22;;;;;;;;;;1779846;80;21557;-66
2022/11/26 07:42:31;;;;;;;9.75;5.08;;;;;;;;;;1774536;80;21526;-66
2022/11/26 07:44:57;;;;;;;11.22;5.50;;;;;;;;;;1739122;81;21088;-65
2022/11/26 07:47:24;;;;;;;12.75;6.20;;;;;;;;;;1765951;79;21085;-65
2022/11/26 07:49:50;;;;;;;12.35;7.50;;;;;;;;;;1776007;80;21071;-66
2022/11/26 07:52:16;;;;;;;10.08;5.80;;;;;;;;;;1761356;80;21044;-65
2022/11/26 07:54:43;;;;;;;6.28;4.00;;;;;;;;;;1771801;80;21043;-65
2022/11/26 07:57:09;;;;;;;7.47;4.67;;;;;;;;;;1757648;81;21311;-65
2022/11/26 07:59:35;;;;;;;7.72;4.33;;;;;;;;;;1755789;81;21098;-65
2022/11/26 08:02:02;;;;;;;7.10;3.98;;;;;;;;;;1768290;80;21075;-64
2022/11/26 08:04:28;;;;;;;7.83;4.33;;;;;;;;;;1772886;80;21503;-65
2022/11/26 08:06:54;;;;;;;9.13;4.60;;;;;;;;;;1788253;80;21004;-66
2022/11/26 08:09:20;;;;;;;9.55;5.20;;;;;;;;;;1790890;80;21471;-66
2022/11/26 08:11:47;;;;;;;12.90;5.80;;;;;;;;;;1765943;80;21012;-66
2022/11/26 08:14:13;;;;;;;10.53;5.60;;;;;;;;;;1761997;80;21527;-65
2022/11/26 08:16:39;;;;;;;8.98;5.05;;;;;;;;;;1763455;80;21078;-65
2022/11/26 08:19:07;;;;;;;9.38;5.00;;;;;;;;;;1766907;80;21047;-65
2022/11/26 08:21:33;;;;;;;7.50;4.70;;;;;;;;;;1779569;80;21504;-65
2022/11/26 08:23:59;;;;;;;7.47;4.55;;;;;;;;;;1779744;80;21035;-65
2022/11/26 08:26:25;;;;;;;7.83;4.67;;;;;;;;;;1777881;80;21086;-65
2022/11/26 08:28:52;;;;;;;7.72;4.33;;;;;;;;;;1771544;80;21083;-65
2022/11/26 08:31:19;;;;;;;7.17;4.30;;;;;;;;;;1765470;80;21107;-65
2022/11/26 08:33:45;;;;;;;10.45;5.87;;;;;;;;;;1765970;80;20984;-65
2022/11/26 08:36:11;;;;;;;15.35;8.00;;;;;;;;;;1770355;81;21071;-65
2022/11/26 08:38:37;;;;;;;13.93;7.83;;;;;;;;;;1770285;80;21625;-66
2022/11/26 08:41:05;;;;;;;20.40;10.08;;;;;;;;;;1770060;81;21522;-65
2022/11/26 08:43:33;;;;;;;18.77;8.83;;;;;;;;;;1778455;79;21044;-65
2022/11/26 08:45:59;;;;;;;26.45;11.50;;;;;;;;;;1750752;82;21599;-66
2022/11/26 08:48:26;;;;;;;24.85;11.20;;;;;;;;;;1784628;79;21083;-65
2022/11/26 08:50:59;;;;;;;26.55;10.80;;;;;;;;;;1773138;80;21011;-65
2022/11/26 08:53:26;;;;;;;22.83;10.13;;;;;;;;;;1753526;82;21694;-67
2022/11/26 08:55:52;;;;;;;19.82;9.45;;;;;;;;;;1746222;81;21052;-64
2022/11/26 08:58:18;;;;;;;20.12;9.98;;;;;;;;;;1785783;80;21499;-65
2022/11/26 09:00:45;;;;;;;14.20;7.53;;;;;;;;;;1794823;80;21058;-65
2022/11/26 09:03:11;;;;;;;14.43;7.58;;;;;;;;;;1759251;80;20991;-65
2022/11/26 09:05:39;;;;;;;16.52;7.58;;;;;;;;;;1766420;80;21016;-64
2022/11/26 09:08:05;;;;;;;52.78;13.35;;;;;;;;;;1789523;80;21550;-64
2022/11/26 09:10:30;;;;;;;28.85;9.53;;;;;;;;;;1726330;82;21428;-64
2022/11/26 09:12:57;;;;;;;13.32;7.25;;;;;;;;;;1758720;80;21100;-64
2022/11/26 09:15:23;;;;;;;11.28;5.92;;;;;;;;;;1755833;82;21055;-65
2022/11/26 09:17:50;;;;;;;9.80;5.05;;;;;;;;;;1729041;82;21559;-65
2022/11/26 09:20:16;;;;;;;9.05;5.22;;;;;;;;;;1731665;82;21060;-65
2022/11/26 09:22:42;;;;;;;9.85;5.28;;;;;;;;;;1723791;82;21064;-65
2022/11/26 09:25:09;;;;;;;22.93;5.55;;;;;;;;;;1770246;80;21040;-65
2022/11/26 09:27:37;;;;;;;9.20;5.15;;;;;;;;;;1787174;80;21512;-66
2022/11/26 09:30:04;;;;;;;11.03;5.72;;;;;;;;;;1726311;81;21060;-63
2022/11/26 09:32:33;;;;;;;15.63;5.55;;;;;;;;;;1746003;82;21037;-65
2022/11/26 09:34:59;;;;;;;18.00;5.85;;;;;;;;;;1709146;83;21063;-65
2022/11/26 09:37:25;;;;;;;14.43;7.55;;;;;;;;;;1737758;82;22185;-65
2022/11/26 09:39:52;;;;;;;13.45;6.92;;;;;;;;;;1737765;81;21063;-64
2022/11/26 09:42:20;;;;;;;9.98;5.58;;;;;;;;;;1742454;81;21012;-64
2022/11/26 09:45:03;;;;;;;9.83;5.72;;;;;;;;;;1737420;81;21564;-64
2022/11/26 09:47:31;;;;;;;9.30;5.55;;;;;;;;;;1734976;81;21601;-64
2022/11/26 09:50:03;;;;;;;17.98;10.00;;;;;;;;;;1739672;81;21040;-65
2022/11/26 09:52:29;;;;;;;17.95;9.33;;;;;;;;;;1743929;81;21615;-65
2022/11/26 09:55:13;;;;;;;10.48;6.28;;;;;;;;;;1740342;81;21043;-65
2022/11/26 09:57:40;;;;;;;11.38;5.78;;;;;;;;;;1735532;81;21115;-65
2022/11/26 10:00:27;;;;;;;9.70;4.90;;;;;;;;;;1736636;81;21071;-64
2022/11/26 10:02:55;;;;;;;13.28;7.87;;;;;;;;;;1743792;82;21091;-64
2022/11/26 10:05:22;;;;;;;9.63;6.28;;;;;;;;;;1742647;81;21043;-64
2022/11/26 10:08:05;;;;;;;8.70;5.22;;;;;;;;;;1744426;82;21093;-66
2022/11/26 10:10:43;;;;;;;13.65;6.78;;;;;;;;;;1767368;80;21067;-64
2022/11/26 10:13:14;;;;;;;11.30;5.80;;;;;;;;;;1770170;80;21361;-64
2022/11/26 10:15:41;;;;;;;10.68;5.45;;;;;;;;;;1753162;81;21004;-64
2022/11/26 10:18:16;;;;;;;9.18;4.83;;;;;;;;;;1718480;82;21107;-64
2022/11/26 10:20:46;;;;;;;8.80;5.00;;;;;;;;;;1758974;81;21500;-64
2022/11/26 10:23:14;;;;;;;9.58;4.58;;;;;;;;;;1758846;80;20989;-65
2022/11/26 10:25:42;;;;;;;10.48;5.17;;;;;;;;;;1747730;80;21036;-65
2022/11/26 10:28:16;;;;;;;7.40;4.87;;;;;;;;;;1775241;80;21067;-64
2022/11/26 10:30:43;;;;;;;7.87;4.22;;;;;;;;;;1749664;80;21618;-64
2022/11/26 10:33:10;;;;;;;6.78;4.45;;;;;;;;;;1751938;81;22136;-66
2022/11/26 10:35:37;;;;;;;8.23;4.40;;;;;;;;;;1777452;80;21467;-64
2022/11/26 10:38:04;;;;;;;8.05;4.60;;;;;;;;;;1762035;80;21062;-66
2022/11/26 10:40:31;;;;;;;7.35;4.25;;;;;;;;;;1796858;80;21512;-65
2022/11/26 10:42:59;;;;;;;6.92;4.15;;;;;;;;;;1770200;80;21011;-65
2022/11/26 10:45:26;;;;;;;6.80;4.70;;;;;;;;;;1724966;83;21092;-65
2022/11/26 10:47:52;;;;;;;8.38;4.33;;;;;;;;;;1756240;82;21599;-65
2022/11/26 12:50:32;;;;;;;7.47;4.83;;;;;;;;;;1822429;77;22136;-64
2022/11/26 12:53:12;;;;;;;6.95;4.58;;;;;;;;;;1791950;80;21512;-64
2022/11/26 12:55:40;;;;;;;7.47;4.17;;;;;;;;;;1799142;78;20989;-63
2022/11/26 12:58:11;;;;;;;9.50;4.75;;;;;;;;;;1806265;78;21020;-64
2022/11/26 13:00:37;;;;;;;5.70;3.75;;;;;;;;;;1810443;78;21027;-63
2022/11/26 13:03:04;;;;;;;7.47;4.37;;;;;;;;;;1811372;78;21543;-65
2022/11/26 13:05:49;;;;;;;7.20;3.87;;;;;;;;;;1820227;78;21040;-64
2022/11/26 13:08:43;;;;;;;7.35;4.10;;;;;;;;;;1816182;78;21036;-63
2022/11/26 13:11:26;;;;;;;6.60;3.95;;;;;;;;;;1807878;78;21001;-65
2022/11/26 13:13:54;;;;;;;8.45;4.00;;;;;;;;;;1806958;78;21568;-64
2022/11/26 13:16:37;;;;;;;7.28;4.37;;;;;;;;;;1807851;78;21028;-64
2022/11/26 13:19:05;;;;;;;7.80;5.40;;;;;;;;;;1805201;78;21555;-64
2022/11/26 13:21:51;;;;;;;7.17;4.47;;;;;;;;;;1808418;78;20981;-64
2022/11/26 13:24:23;;;;;;;6.95;4.50;;;;;;;;;;1815209;78;20965;-65
2022/11/26 13:27:08;;;;;;;7.20;4.28;;;;;;;;;;1806851;78;20993;-64
2022/11/26 13:29:39;;;;;;;7.50;4.60;;;;;;;;;;1808313;78;21013;-64
2022/11/26 13:32:25;;;;;;;9.20;4.92;;;;;;;;;;1804059;78;21033;-65
2022/11/26 13:35:07;;;;;;;10.95;5.60;;;;;;;;;;1747326;81;21099;-65
2022/11/26 13:37:35;;;;;;;8.73;4.75;;;;;;;;;;1752489;81;21561;-65
2022/11/26 13:40:09;;;;;;;7.95;5.50;;;;;;;;;;1744886;81;21598;-66
2022/11/26 13:42:37;;;;;;;8.20;4.25;;;;;;;;;;1734435;82;21115;-65
2022/11/26 13:45:24;;;;;;;8.38;4.85;;;;;;;;;;1735949;82;21014;-65
2022/11/26 13:47:52;;;;;;;6.92;4.55;;;;;;;;;;1734471;82;21583;-66
2022/11/26 13:50:23;;;;;;;6.75;4.40;;;;;;;;;;1728569;82;21061;-64
2022/11/26 13:52:52;;;;;;;7.17;4.37;;;;;;;;;;1783257;79;21555;-65
2022/11/26 13:55:20;;;;;;;6.87;4.03;;;;;;;;;;1777016;81;21045;-66
2022/11/26 13:57:48;;;;;;;7.47;4.65;;;;;;;;;;1735171;81;21523;-65
2022/11/26 14:00:22;;;;;;;11.75;6.33;;;;;;;;;;1737223;82;20989;-65
2022/11/26 14:02:49;;;;;;;10.90;6.37;;;;;;;;;;1714537;83;21660;-66
2022/11/26 14:05:15;;;;;;;9.25;5.85;;;;;;;;;;1776481;81;21088;-65
2022/11/26 14:07:42;;;;;;;10.82;5.90;;;;;;;;;;1740944;81;21015;-65
2022/11/26 14:10:10;;;;;;;11.40;7.00;;;;;;;;;;1719988;83;21086;-65
2022/11/26 14:12:55;;;;;;;15.40;7.47;;;;;;;;;;1713780;83;21089;-65
2022/11/26 14:15:42;;;;;;;20.15;10.18;;;;;;;;;;1776296;80;21054;-65
2022/11/26 14:18:09;;;;;;;11.90;6.58;;;;;;;;;;1773800;79;21053;-65
2022/11/26 14:20:53;;;;;;;8.68;5.50;;;;;;;;;;1778176;80;21053;-65
2022/11/26 14:23:39;;;;;;;7.33;4.40;;;;;;;;;;1761214;80;20982;-65
2022/11/26 14:26:09;;;;;;;7.97;4.65;;;;;;;;;;1767352;80;21104;-64
2022/11/26 14:28:35;;;;;;;7.50;4.47;;;;;;;;;;1773117;79;20954;-64
2022/11/26 14:31:12;;;;;;;6.60;4.30;;;;;;;;;;1772924;80;21033;-65
2022/11/26 14:33:43;;;;;;;5.37;3.87;;;;;;;;;;1771795;80;21072;-65
2022/11/26 14:36:09;;;;;;;7.22;4.20;;;;;;;;;;1775301;80;21115;-66
2022/11/26 14:38:35;;;;;;;7.08;4.45;;;;;;;;;;1774724;79;21026;-66
2022/11/26 14:41:01;;;;;;;7.58;4.35;;;;;;;;;;1776429;81;21069;-66
2022/11/26 14:43:28;;;;;;;8.28;4.70;;;;;;;;;;1774102;80;21052;-66
2022/11/26 14:46:04;;;;;;;5.47;4.00;;;;;;;;;;1776811;81;21021;-65
2022/11/26 14:48:31;;;;;;;6.70;4.50;;;;;;;;;;1768838;79;21525;-65
2022/11/26 14:50:58;;;;;;;7.42;4.40;;;;;;;;;;1783169;79;21014;-65
2022/11/26 14:53:28;;;;;;;6.47;4.05;;;;;;;;;;1781025;79;21147;-66
2022/11/26 14:55:55;;;;;;;7.08;3.58;;;;;;;;;;1788409;79;21495;-65
2022/11/26 14:58:22;;;;;;;6.95;4.30;;;;;;;;;;1791721;79;21062;-64
2022/11/26 15:01:02;;;;;;;7.95;4.35;;;;;;;;;;1787634;79;21217;-65
2022/11/26 15:03:29;;;;;;;8.05;5.12;;;;;;;;;;1782100;79;21340;-66
2022/11/26 15:05:55;;;;;;;6.53;4.60;;;;;;;;;;1787836;79;21106;-66
2022/11/26 15:08:23;;;;;;;8.10;4.78;;;;;;;;;;1778008;79;22153;-66
2022/11/26 15:10:51;;;;;;;7.25;4.92;;;;;;;;;;1767335;80;20985;-65
2022/11/26 15:13:35;;;;;;;8.13;5.10;;;;;;;;;;1792069;79;21020;-65
2022/11/26 15:16:02;;;;;;;8.88;5.05;;;;;;;;;;1786939;79;21076;-65
2022/11/26 15:18:32;;;;;;;10.80;5.80;;;;;;;;;;1790561;79;21017;-66
2022/11/26 15:20:58;;;;;;;15.63;7.83;;;;;;;;;;1785401;79;20985;-67
2022/11/26 15:23:26;;;;;;;11.25;6.30;;;;;;;;;;1790864;79;21079;-65
2022/11/26 15:25:52;;;;;;;10.45;5.95;;;;;;;;;;1787728;79;21072;-64
2022/11/26 15:28:19;;;;;;;12.40;6.37;;;;;;;;;;1790825;79;21052;-66
2022/11/26 15:30:53;;;;;;;11.38;6.70;;;;;;;;;;1784286;79;21041;-64
2022/11/26 15:33:19;;;;;;;12.80;6.53;;;;;;;;;;1783400;79;21362;-66
2022/11/26 15:35:46;;;;;;;10.50;6.20;;;;;;;;;;1788474;79;21030;-64
2022/11/26 15:38:14;;;;;;;13.50;6.92;;;;;;;;;;1761309;80;21052;-66
2022/11/26 15:40:45;;;;;;;10.20;5.92;;;;;;;;;;1787482;79;20982;-66
2022/11/26 15:43:14;;;;;;;14.47;6.80;;;;;;;;;;1790937;79;21041;-66
2022/11/26 15:45:40;;;;;;;13.35;6.20;;;;;;;;;;1783522;79;20981;-65
2022/11/26 15:48:08;;;;;;;16.37;7.30;;;;;;;;;;1774391;79;21042;-64
2022/11/26 15:50:35;;;;;;;10.75;6.37;;;;;;;;;;1777833;79;20993;-65
2022/11/26 15:53:03;;;;;;;11.03;6.08;;;;;;;;;;1773559;80;21060;-65
2022/11/26 15:55:31;;;;;;;16.73;7.55;;;;;;;;;;1777938;80;21041;-65
2022/11/26 15:57:58;;;;;;;17.75;8.38;;;;;;;;;;1769334;81;21068;-66
2022/11/26 16:00:30;;;;;;;14.13;6.87;;;;;;;;;;1760738;79;21025;-64
2022/11/26 16:02:56;;;;;;;13.22;7.70;;;;;;;;;;1776903;80;21038;-65
2022/11/26 16:05:27;;;;;;;16.77;8.18;;;;;;;;;;1774758;80;21058;-65
2022/11/26 16:07:57;;;;;;;20.50;8.55;;;;;;;;;;1767997;79;21009;-64
2022/11/26 16:10:28;;;;;;;22.82;9.48;;;;;;;;;;1771607;80;21049;-65
2022/11/26 16:13:12;;;;;;;17.02;8.18;;;;;;;;;;1775377;80;21006;-65
2022/11/26 16:15:46;;;;;;;13.58;7.17;;;;;;;;;;1769464;79;21484;-66
2022/11/26 16:18:14;;;;;;;9.23;5.58;;;;;;;;;;1768495;80;21525;-66
2022/11/26 16:20:40;;;;;;;19.20;7.65;;;;;;;;;;1772325;80;20982;-66
2022/11/26 16:23:09;;;;;;;15.48;7.72;;;;;;;;;;1772296;80;21505;-64
2022/11/26 16:25:36;;;;;;;17.77;8.38;;;;;;;;;;1769749;79;21035;-64
2022/11/26 16:28:11;;;;;;;14.00;7.25;;;;;;;;;;1770780;80;21022;-64
2022/11/26 16:30:38;;;;;;;12.33;7.60;;;;;;;;;;1777148;80;21548;-65
2022/11/26 16:33:06;;;;;;;12.55;6.87;;;;;;;;;;1774413;80;21488;-64
2022/11/26 16:35:33;;;;;;;10.28;6.25;;;;;;;;;;1775938;79;21072;-65
2022/11/26 16:38:00;;;;;;;12.95;6.58;;;;;;;;;;1774662;80;21024;-64
2022/11/26 16:40:26;;;;;;;11.75;6.42;;;;;;;;;;1771312;80;21650;-65
2022/11/26 16:42:53;;;;;;;13.75;7.25;;;;;;;;;;1769157;80;22055;-65
2022/11/26 16:45:21;;;;;;;10.68;5.80;;;;;;;;;;1773412;79;21017;-64
2022/11/26 16:47:48;;;;;;;10.00;5.83;;;;;;;;;;1772793;80;21040;-65
2022/11/26 16:52:54;;;;;;;13.38;7.78;;;;;;;;;;1787158;80;21117;-66
2022/11/26 16:55:24;;;;;;;10.88;6.58;;;;;;;;;;1786909;79;20981;-64
2022/11/26 16:57:52;;;;;;;11.68;6.17;;;;;;;;;;1769590;80;21035;-66
2022/11/26 17:00:20;;;;;;;13.50;7.03;;;;;;;;;;1783348;79;21055;-66
2022/11/26 17:02:50;;;;;;;14.83;7.70;;;;;;;;;;1789996;79;21016;-66
2022/11/26 17:05:16;;;;;;;15.10;7.78;;;;;;;;;;1785092;79;21519;-65
2022/11/26 17:07:45;;;;;;;15.05;7.85;;;;;;;;;;1788079;79;21088;-65
2022/11/26 17:10:18;;;;;;;11.18;6.55;;;;;;;;;;1786779;79;21080;-64
2022/11/26 17:12:45;;;;;;;15.05;7.22;;;;;;;;;;1791241;80;21005;-66
2022/11/26 17:15:11;;;;;;;13.65;7.17;;;;;;;;;;1790657;79;21013;-66
2022/11/26 17:17:38;;;;;;;8.18;5.22;;;;;;;;;;1778636;79;21087;-66
2022/11/26 17:20:07;;;;;;;10.65;6.62;;;;;;;;;;1770114;79;21083;-65
2022/11/26 17:22:33;;;;;;;11.45;6.17;;;;;;;;;;1775116;79;21080;-65
2022/11/26 17:24:59;;;;;;;10.10;6.33;;;;;;;;;;1783941;79;21076;-65
2022/11/26 17:27:26;;;;;;;11.22;6.70;;;;;;;;;;1788315;79;21043;-65
2022/11/26 17:29:53;;;;;;;11.97;7.03;;;;;;;;;;1782951;79;20966;-65
2022/11/26 17:32:19;;;;;;;8.18;5.08;;;;;;;;;;1787835;79;21024;-66
2022/11/26 17:34:45;;;;;;;7.97;5.10;;;;;;;;;;1791052;80;21539;-65
2022/11/26 17:37:13;;;;;;;8.65;5.15;;;;;;;;;;1787079;79;21032;-65
2022/11/26 17:39:39;;;;;;;9.20;5.20;;;;;;;;;;1786177;79;21066;-65
2022/11/26 17:42:06;;;;;;;11.18;6.58;;;;;;;;;;1791433;80;21016;-65
2022/11/26 17:44:32;;;;;;;9.23;6.12;;;;;;;;;;1784998;79;21516;-65
2022/11/26 17:47:00;;;;;;;10.32;6.67;;;;;;;;;;1787837;79;21029;-66
2022/11/26 17:49:26;;;;;;;11.90;6.12;;;;;;;;;;1785416;79;21591;-66
2022/11/26 17:51:53;;;;;;;8.90;5.62;;;;;;;;;;1786343;79;21465;-66
2022/11/26 17:54:19;;;;;;;8.03;5.50;;;;;;;;;;1787589;79;21027;-66
2022/11/26 17:56:46;;;;;;;7.95;4.85;;;;;;;;;;1785548;78;21023;-66
2022/11/26 17:59:13;;;;;;;8.25;5.58;;;;;;;;;;1790087;80;21535;-66
2022/11/26 18:01:39;;;;;;;8.95;5.87;;;;;;;;;;1765987;80;21008;-66
2022/11/26 18:04:06;;;;;;;7.33;4.95;;;;;;;;;;1787121;79;21052;-65
2022/11/26 18:06:51;;;;;;;9.65;6.05;;;;;;;;;;1784117;79;20993;-65
2022/11/26 18:09:17;;;;;;;11.65;5.90;;;;;;;;;;1782811;79;21511;-65
2022/11/26 18:11:45;;;;;;;8.48;5.03;;;;;;;;;;1789452;79;21013;-65
2022/11/26 18:14:12;;;;;;;8.80;5.17;;;;;;;;;;1790539;79;21031;-65
2022/11/26 18:16:39;;;;;;;8.33;4.92;;;;;;;;;;1785735;79;21013;-65
2022/11/26 18:19:09;;;;;;;7.85;5.00;;;;;;;;;;1789883;79;21071;-65
2022/11/26 18:21:36;;;;;;;7.30;4.33;;;;;;;;;;1784718;79;21504;-64
2022/11/26 18:24:03;;;;;;;6.17;3.70;;;;;;;;;;1788115;79;21037;-65
2022/11/26 18:26:31;;;;;;;8.55;5.58;;;;;;;;;;1788006;79;21003;-65
2022/11/26 18:28:57;;;;;;;5.95;3.87;;;;;;;;;;1781983;79;20985;-65
2022/11/26 18:31:24;;;;;;;7.03;4.37;;;;;;;;;;1782839;78;21004;-65
2022/11/26 18:33:51;;;;;;;7.45;4.50;;;;;;;;;;1714961;82;20999;-65
2022/11/26 18:36:19;;;;;;;8.85;5.17;;;;;;;;;;1747567;80;21052;-66
2022/11/26 18:38:46;;;;;;;8.58;5.30;;;;;;;;;;1722666;83;21085;-66
2022/11/26 18:41:13;;;;;;;9.23;5.83;;;;;;;;;;1722288;83;21113;-66
2022/11/26 18:43:40;;;;;;;9.88;5.10;;;;;;;;;;1722675;83;21057;-66
2022/11/26 18:46:10;;;;;;;9.75;5.45;;;;;;;;;;1723591;83;21715;-66
2022/11/26 18:48:37;;;;;;;11.68;5.53;;;;;;;;;;1727258;83;21133;-66
2022/11/26 18:51:05;;;;;;;10.40;5.65;;;;;;;;;;1712111;83;21085;-66
2022/11/26 18:53:32;;;;;;;7.95;4.90;;;;;;;;;;1726434;83;21026;-66
2022/11/26 18:56:00;;;;;;;9.83;5.85;;;;;;;;;;1721176;83;21029;-66
2022/11/26 18:58:27;;;;;;;14.53;7.33;;;;;;;;;;1723519;83;21032;-65
2022/11/26 19:00:57;;;;;;;9.98;5.28;;;;;;;;;;1722677;83;21030;-65
2022/11/26 19:03:26;;;;;;;10.43;5.50;;;;;;;;;;1721866;82;21030;-65
2022/11/26 19:05:53;;;;;;;7.28;4.83;;;;;;;;;;1723743;82;21110;-65
2022/11/26 19:08:20;;;;;;;7.85;5.17;;;;;;;;;;1722083;83;21028;-65
2022/11/26 19:10:46;;;;;;;9.63;5.70;;;;;;;;;;1723751;83;21033;-66
2022/11/26 19:13:13;;;;;;;8.53;5.15;;;;;;;;;;1722638;83;21049;-66
2022/11/26 19:15:43;;;;;;;7.37;5.10;;;;;;;;;;1723731;83;21049;-65
2022/11/26 19:18:11;;;;;;;9.60;5.00;;;;;;;;;;1717147;83;21500;-65
2022/11/26 19:20:39;;;;;;;8.53;5.60;;;;;;;;;;1724673;82;21061;-66
2022/11/26 19:23:07;;;;;;;9.30;5.05;;;;;;;;;;1722236;83;21047;-64
2022/11/26 19:25:34;;;;;;;9.93;5.85;;;;;;;;;;1724047;83;21054;-65
2022/11/26 19:28:00;;;;;;;8.40;5.40;;;;;;;;;;1747261;80;21920;-64
2022/11/26 19:30:28;;;;;;;7.30;4.53;;;;;;;;;;1748114;80;20997;-64
2022/11/26 19:32:55;;;;;;;7.62;5.00;;;;;;;;;;1725277;83;21519;-65
2022/11/26 19:35:22;;;;;;;9.38;6.00;;;;;;;;;;1777511;80;22222;-65
2022/11/26 19:37:48;;;;;;;9.45;5.87;;;;;;;;;;1781259;79;21084;-66
2022/11/26 19:40:16;;;;;;;8.33;4.90;;;;;;;;;;1777177;80;21163;-66
2022/11/26 19:42:42;;;;;;;8.50;4.70;;;;;;;;;;1785412;80;21020;-66
2022/11/26 19:45:10;;;;;;;9.33;5.25;;;;;;;;;;1783174;80;20980;-66
2022/11/26 19:47:36;;;;;;;8.53;4.87;;;;;;;;;;1769117;79;21044;-66
2022/11/26 19:50:05;;;;;;;66.02;37.30;;;;;;;;;;1779452;80;21068;-65
2022/11/26 19:52:40;;;;;;;13.28;10.50;;;;;;;;;;1771083;80;21076;-67
2022/11/26 19:55:09;;;;;;;9.98;6.22;;;;;;;;;;1774751;81;21072;-66
2022/11/26 19:57:36;;;;;;;8.75;5.78;;;;;;;;;;1772112;81;21002;-66
2022/11/26 20:00:08;;;;;;;9.65;6.03;;;;;;;;;;1766512;81;21009;-67
2022/11/26 20:02:37;;;;;;;7.67;5.05;;;;;;;;;;1771286;81;21336;-66
2022/11/26 20:05:05;;;;;;;7.87;4.83;;;;;;;;;;1767857;81;21001;-67
2022/11/26 20:07:32;;;;;;;7.87;4.78;;;;;;;;;;1770021;81;21616;-67
2022/11/26 20:10:01;;;;;;;9.58;5.78;;;;;;;;;;1764403;81;21397;-66
2022/11/26 20:12:29;;;;;;;14.53;13.00;;;;;;;;;;1767733;81;21481;-66
2022/11/26 20:14:56;;;;;;;9.13;5.78;;;;;;;;;;1752596;81;21665;-66
2022/11/26 20:17:22;;;;;;;8.35;5.35;;;;;;;;;;1767522;81;21080;-66
2022/11/26 23:19:12;;;;;;;6.17;3.83;;;;;;;;;;1834666;77;22104;-65
2022/11/26 23:21:38;;;;;;;5.95;3.42;;;;;;;;;;1817748;77;21017;-65
2022/11/26 23:24:05;;;;;;;13.65;5.15;;;;;;;;;;1802928;77;21009;-65
2022/11/26 23:26:32;;;;;;;10.30;4.85;;;;;;;;;;1814068;78;21487;-65
2022/11/26 23:28:59;;;;;;;8.38;4.05;;;;;;;;;;1822588;78;21547;-65
2022/11/26 23:31:26;;;;;;;6.50;3.65;;;;;;;;;;1806226;78;21004;-64
2022/11/26 23:33:52;;;;;;;6.83;4.22;;;;;;;;;;1781192;79;21666;-65
2022/11/26 23:36:19;;;;;;;7.42;3.90;;;;;;;;;;1781201;80;21036;-65
2022/11/26 23:38:46;;;;;;;7.20;3.77;;;;;;;;;;1781163;79;21028;-65
2022/11/26 23:41:12;;;;;;;6.67;3.35;;;;;;;;;;1802138;78;21064;-65
2022/11/26 23:43:39;;;;;;;4.30;3.12;;;;;;;;;;1792033;80;21060;-65
2022/11/26 23:46:16;;;;;;;4.17;3.05;;;;;;;;;;1792005;79;21025;-65
2022/11/26 23:48:42;;;;;;;4.22;3.20;;;;;;;;;;1792125;78;21088;-65
2022/11/26 23:51:10;;;;;;;5.90;2.90;;;;;;;;;;1793095;78;21009;-65
2022/11/26 23:53:37;;;;;;;4.70;3.50;;;;;;;;;;1792514;80;21040;-65
2022/11/26 23:56:04;;;;;;;4.78;2.75;;;;;;;;;;1792163;79;21052;-65
2022/11/26 23:58:31;;;;;;;5.30;3.05;;;;;;;;;;1812299;78;21496;-65
